Huvudsida
METAR-TAF:

METAR-TAF

Flygplatser :

Buraydah, Saudiarabien

latitud: 26-18N, longitud: 043-46E, höjd: 648 m

Aktuellt väderrapport

Denna rapport gjordes för 35 minuter sedan, klockan 21:00 UTC
Vind 2 kt från syd/sydost
Temperatur 30°C
Fuktighet 29%
Tryck 1014 hPa
Sikt 10 km eller mer
Spridda moln på en höjd av 4000 ft

METAR: OEGS 212100Z 15002KT 9999 SCT040 30/10 Q1014

Tid: 00:35 (21:35 UTC)

Väderprognos

Denna rapport gjordes för 10 timmar och 35 minuter sedan, klockan 11:00 UTC
Prognos gäller från 21 kl. 12 UTC till 22 kl. 18 UTC
Vind 12 kt från nordost
Sikt: 7000 m
Spridda moln på en höjd av 4000 ft
Spridda moln på en höjd av 10000 ft
Temporärt
från 21 kl. 12 UTC till 21 kl. 20 UTC
Sikt: 3500 m
Få moln på en höjd av 3500 ft, Cumulonimbus.
åska
Blir
från 21 kl. 22 UTC till 21 kl. 24 UTC
Vind 6 kt från nord/nordväst

TAF: OEGS 211100Z 2112/2218 04012KT 7000 SCT040 SCT100 TEMPO 2112/2120 3500 TS FEW035CB BECMG 2122/2124 34006KT

Aktuella väderrapporter och prognoser från 4000 flygplatser (METAR- och TAF-rapporter).

De tillgängliga stationerna syns som gula och röda prickar på kartan.

För musen över prickarna för att se namnen på stationerna.

Klicka sedan för att få väderrapporter och prognoser.

För att ändra kartan: Klicka på de gröna knapparna med ett svart kors på för att zooma in; den gröna knappen med ett streck på för att zooma ut; eller på de gröna pilarna för angränsande kartor.


METAR-TAF: